Terminal Aerodrome Forecast
Issued by NWS

Home | Current Version | Previous Version | Graphics & Text | Print | Product List | Glossary On
Versions: 1 2 3 4 5 6 7 8 9 10 11 12 13 14 15 16 17 18 19 20 21 22 23 24 25 26
000
FTUS43 KABR 252300
TAFATY
TAF
KATY 252320Z 2600/2624 07010KT P6SM OVC040
     FM260300 10006KT P6SM BKN035
      TEMPO 2609/2613 3SM BR
     FM261300 12006KT P6SM SCT025=

USA.gov is the U.S. government's official web portal to all federal, state and local government web resources and services.